sensor_id;sensor_type;location;lat;lon;timestamp;P1;durP1;ratioP1;P2;durP2;ratioP2
10465;SDS011;5280;42.600;23.556;2022-08-11T00:02:15;11.77;;;7.10;;
10465;SDS011;5280;42.600;23.556;2022-08-11T00:04:51;9.60;;;6.20;;
10465;SDS011;5280;42.600;23.556;2022-08-11T00:07:20;7.87;;;6.53;;
10465;SDS011;5280;42.600;23.556;2022-08-11T00:09:50;9.80;;;6.60;;
10465;SDS011;5280;42.600;23.556;2022-08-11T00:12:19;13.73;;;6.60;;
10465;SDS011;5280;42.600;23.556;2022-08-11T00:14:47;12.57;;;6.67;;
10465;SDS011;5280;42.600;23.556;2022-08-11T00:17:21;6.80;;;6.07;;
10465;SDS011;5280;42.600;23.556;2022-08-11T00:19:54;10.17;;;6.40;;
10465;SDS011;5280;42.600;23.556;2022-08-11T00:22:28;15.70;;;6.47;;
10465;SDS011;5280;42.600;23.556;2022-08-11T00:24:57;6.57;;;5.97;;
10465;SDS011;5280;42.600;23.556;2022-08-11T00:27:33;9.63;;;6.87;;
10465;SDS011;5280;42.600;23.556;2022-08-11T00:30:00;9.83;;;6.17;;
10465;SDS011;5280;42.600;23.556;2022-08-11T00:32:33;8.83;;;6.60;;
10465;SDS011;5280;42.600;23.556;2022-08-11T00:35:02;10.90;;;6.40;;
10465;SDS011;5280;42.600;23.556;2022-08-11T00:37:32;9.53;;;6.47;;
10465;SDS011;5280;42.600;23.556;2022-08-11T00:40:02;8.67;;;6.27;;
10465;SDS011;5280;42.600;23.556;2022-08-11T00:42:39;7.00;;;5.80;;
10465;SDS011;5280;42.600;23.556;2022-08-11T00:45:13;10.23;;;6.73;;
10465;SDS011;5280;42.600;23.556;2022-08-11T00:47:52;11.33;;;6.67;;
10465;SDS011;5280;42.600;23.556;2022-08-11T00:50:35;11.60;;;6.20;;
10465;SDS011;5280;42.600;23.556;2022-08-11T00:53:23;8.50;;;6.27;;
10465;SDS011;5280;42.600;23.556;2022-08-11T00:59:25;6.50;;;5.90;;
10465;SDS011;5280;42.600;23.556;2022-08-11T01:02:15;6.97;;;5.83;;
10465;SDS011;5280;42.600;23.556;2022-08-11T01:10:58;7.00;;;6.40;;
10465;SDS011;5280;42.600;23.556;2022-08-11T01:20:02;15.03;;;6.20;;
10465;SDS011;5280;42.600;23.556;2022-08-11T01:36:09;9.50;;;6.57;;
10465;SDS011;5280;42.600;23.556;2022-08-11T01:42:19;9.50;;;7.13;;
10465;SDS011;5280;42.600;23.556;2022-08-11T01:45:46;7.03;;;6.33;;
10465;SDS011;5280;42.600;23.556;2022-08-11T01:48:22;10.30;;;6.43;;
10465;SDS011;5280;42.600;23.556;2022-08-11T01:51:10;12.13;;;7.30;;
10465;SDS011;5280;42.600;23.556;2022-08-11T01:53:45;9.70;;;7.33;;
10465;SDS011;5280;42.600;23.556;2022-08-11T01:56:25;10.20;;;6.97;;
10465;SDS011;5280;42.600;23.556;2022-08-11T01:59:06;10.93;;;6.97;;
10465;SDS011;5280;42.600;23.556;2022-08-11T02:04:32;8.33;;;6.97;;
10465;SDS011;5280;42.600;23.556;2022-08-11T02:07:08;7.07;;;6.40;;
10465;SDS011;5280;42.600;23.556;2022-08-11T02:09:54;10.47;;;7.50;;
10465;SDS011;5280;42.600;23.556;2022-08-11T02:12:49;8.13;;;6.87;;
10465;SDS011;5280;42.600;23.556;2022-08-11T02:15:21;9.13;;;6.93;;
10465;SDS011;5280;42.600;23.556;2022-08-11T02:17:56;8.17;;;6.57;;
10465;SDS011;5280;42.600;23.556;2022-08-11T02:20:34;10.80;;;7.03;;
10465;SDS011;5280;42.600;23.556;2022-08-11T02:23:26;8.17;;;6.77;;
10465;SDS011;5280;42.600;23.556;2022-08-11T02:26:08;7.87;;;6.53;;
10465;SDS011;5280;42.600;23.556;2022-08-11T02:28:45;13.97;;;7.33;;
10465;SDS011;5280;42.600;23.556;2022-08-11T02:31:23;9.03;;;6.57;;
10465;SDS011;5280;42.600;23.556;2022-08-11T02:34:18;12.90;;;7.10;;
10465;SDS011;5280;42.600;23.556;2022-08-11T02:36:54;11.03;;;7.10;;
10465;SDS011;5280;42.600;23.556;2022-08-11T02:39:28;8.17;;;7.03;;
10465;SDS011;5280;42.600;23.556;2022-08-11T02:42:06;7.73;;;7.00;;
10465;SDS011;5280;42.600;23.556;2022-08-11T02:44:50;8.83;;;6.50;;
10465;SDS011;5280;42.600;23.556;2022-08-11T02:47:31;10.73;;;6.77;;
10465;SDS011;5280;42.600;23.556;2022-08-11T02:50:11;6.90;;;6.30;;
10465;SDS011;5280;42.600;23.556;2022-08-11T02:52:46;9.50;;;6.97;;
10465;SDS011;5280;42.600;23.556;2022-08-11T02:55:25;9.73;;;6.87;;
10465;SDS011;5280;42.600;23.556;2022-08-11T02:57:58;8.13;;;6.60;;
10465;SDS011;5280;42.600;23.556;2022-08-11T03:00:46;10.10;;;7.10;;
10465;SDS011;5280;42.600;23.556;2022-08-11T03:03:22;7.17;;;6.50;;
10465;SDS011;5280;42.600;23.556;2022-08-11T03:06:04;8.80;;;6.20;;
10465;SDS011;5280;42.600;23.556;2022-08-11T03:08:39;8.80;;;6.80;;
10465;SDS011;5280;42.600;23.556;2022-08-11T03:11:18;13.77;;;6.67;;
10465;SDS011;5280;42.600;23.556;2022-08-11T03:14:16;7.63;;;6.57;;
10465;SDS011;5280;42.600;23.556;2022-08-11T03:17:11;6.90;;;6.30;;
10465;SDS011;5280;42.600;23.556;2022-08-11T03:19:52;9.50;;;6.90;;
10465;SDS011;5280;42.600;23.556;2022-08-11T03:22:29;10.07;;;6.60;;
10465;SDS011;5280;42.600;23.556;2022-08-11T03:25:05;10.97;;;5.97;;
10465;SDS011;5280;42.600;23.556;2022-08-11T03:27:40;8.17;;;6.20;;
10465;SDS011;5280;42.600;23.556;2022-08-11T03:30:16;7.97;;;6.83;;
10465;SDS011;5280;42.600;23.556;2022-08-11T03:32:59;10.13;;;6.77;;
10465;SDS011;5280;42.600;23.556;2022-08-11T03:35:53;7.20;;;6.60;;
10465;SDS011;5280;42.600;23.556;2022-08-11T03:38:47;9.23;;;6.77;;
10465;SDS011;5280;42.600;23.556;2022-08-11T03:41:30;9.07;;;6.23;;
10465;SDS011;5280;42.600;23.556;2022-08-11T03:44:19;9.87;;;6.20;;
10465;SDS011;5280;42.600;23.556;2022-08-11T03:49:48;7.17;;;6.50;;
10465;SDS011;5280;42.600;23.556;2022-08-11T03:52:26;10.60;;;7.00;;
10465;SDS011;5280;42.600;23.556;2022-08-11T03:55:03;8.10;;;6.20;;
10465;SDS011;5280;42.600;23.556;2022-08-11T04:04:13;12.27;;;6.87;;
10465;SDS011;5280;42.600;23.556;2022-08-11T04:10:10;9.30;;;6.97;;
10465;SDS011;5280;42.600;23.556;2022-08-11T04:13:08;8.23;;;6.80;;
10465;SDS011;5280;42.600;23.556;2022-08-11T04:16:07;11.87;;;6.40;;
10465;SDS011;5280;42.600;23.556;2022-08-11T04:18:55;13.13;;;6.83;;
10465;SDS011;5280;42.600;23.556;2022-08-11T04:24:57;7.67;;;7.00;;
10465;SDS011;5280;42.600;23.556;2022-08-11T04:30:43;10.13;;;7.20;;
10465;SDS011;5280;42.600;23.556;2022-08-11T04:33:42;8.20;;;7.50;;
10465;SDS011;5280;42.600;23.556;2022-08-11T05:37:48;7.63;;;6.53;;
10465;SDS011;5280;42.600;23.556;2022-08-11T05:40:32;7.00;;;6.43;;
10465;SDS011;5280;42.600;23.556;2022-08-11T05:43:18;6.37;;;5.80;;
10465;SDS011;5280;42.600;23.556;2022-08-11T05:46:04;6.60;;;6.10;;
10465;SDS011;5280;42.600;23.556;2022-08-11T05:48:50;6.87;;;6.23;;
10465;SDS011;5280;42.600;23.556;2022-08-11T05:51:38;6.17;;;5.63;;
10465;SDS011;5280;42.600;23.556;2022-08-11T05:54:26;7.53;;;6.13;;
10465;SDS011;5280;42.600;23.556;2022-08-11T05:57:17;6.63;;;6.00;;
10465;SDS011;5280;42.600;23.556;2022-08-11T05:59:46;7.00;;;6.37;;
10465;SDS011;5280;42.600;23.556;2022-08-11T06:02:15;7.83;;;6.17;;
10465;SDS011;5280;42.600;23.556;2022-08-11T06:04:42;6.77;;;6.17;;
10465;SDS011;5280;42.600;23.556;2022-08-11T06:07:12;7.50;;;6.80;;
10465;SDS011;5280;42.600;23.556;2022-08-11T06:09:47;7.43;;;6.43;;
10465;SDS011;5280;42.600;23.556;2022-08-11T06:12:16;8.13;;;6.70;;
10465;SDS011;5280;42.600;23.556;2022-08-11T06:14:45;7.80;;;6.23;;
10465;SDS011;5280;42.600;23.556;2022-08-11T06:17:21;6.73;;;6.20;;
10465;SDS011;5280;42.600;23.556;2022-08-11T06:20:01;7.43;;;6.47;;
10465;SDS011;5280;42.600;23.556;2022-08-11T06:22:42;5.90;;;5.50;;
10465;SDS011;5280;42.600;23.556;2022-08-11T06:25:12;6.67;;;6.07;;
10465;SDS011;5280;42.600;23.556;2022-08-11T06:27:43;6.40;;;5.80;;
10465;SDS011;5280;42.600;23.556;2022-08-11T06:30:32;7.07;;;6.00;;
10465;SDS011;5280;42.600;23.556;2022-08-11T06:33:04;6.20;;;5.70;;
10465;SDS011;5280;42.600;23.556;2022-08-11T06:35:35;6.20;;;5.60;;
10465;SDS011;5280;42.600;23.556;2022-08-11T06:38:13;7.20;;;5.73;;
10465;SDS011;5280;42.600;23.556;2022-08-11T06:40:52;5.93;;;5.43;;
10465;SDS011;5280;42.600;23.556;2022-08-11T06:43:44;6.00;;;5.50;;
10465;SDS011;5280;42.600;23.556;2022-08-11T06:46:17;5.30;;;4.90;;
10465;SDS011;5280;42.600;23.556;2022-08-11T06:48:52;5.77;;;5.23;;
10465;SDS011;5280;42.600;23.556;2022-08-11T06:51:19;6.07;;;5.40;;
10465;SDS011;5280;42.600;23.556;2022-08-11T06:53:46;5.87;;;5.37;;
10465;SDS011;5280;42.600;23.556;2022-08-11T06:56:21;6.80;;;6.10;;
10465;SDS011;5280;42.600;23.556;2022-08-11T06:59:08;5.83;;;5.40;;
10465;SDS011;5280;42.600;23.556;2022-08-11T07:01:57;7.87;;;5.97;;
10465;SDS011;5280;42.600;23.556;2022-08-11T07:04:31;5.87;;;5.30;;
10465;SDS011;5280;42.600;23.556;2022-08-11T07:07:16;6.53;;;5.70;;
10465;SDS011;5280;42.600;23.556;2022-08-11T07:23:56;5.23;;;4.83;;
10465;SDS011;5280;42.600;23.556;2022-08-11T07:26:44;5.40;;;4.90;;
10465;SDS011;5280;42.600;23.556;2022-08-11T07:29:33;6.17;;;4.57;;
10465;SDS011;5280;42.600;23.556;2022-08-11T07:32:07;6.17;;;5.00;;
10465;SDS011;5280;42.600;23.556;2022-08-11T07:34:44;5.23;;;4.70;;
10465;SDS011;5280;42.600;23.556;2022-08-11T07:37:17;4.87;;;4.37;;
10465;SDS011;5280;42.600;23.556;2022-08-11T07:39:47;5.47;;;4.50;;
10465;SDS011;5280;42.600;23.556;2022-08-11T07:42:22;5.43;;;4.47;;
10465;SDS011;5280;42.600;23.556;2022-08-11T07:44:54;4.93;;;4.47;;
10465;SDS011;5280;42.600;23.556;2022-08-11T07:47:39;4.77;;;4.40;;
10465;SDS011;5280;42.600;23.556;2022-08-11T07:50:25;5.20;;;4.60;;
10465;SDS011;5280;42.600;23.556;2022-08-11T07:53:10;5.67;;;4.80;;
10465;SDS011;5280;42.600;23.556;2022-08-11T07:55:41;4.40;;;4.00;;
10465;SDS011;5280;42.600;23.556;2022-08-11T07:58:08;3.95;;;3.60;;
10465;SDS011;5280;42.600;23.556;2022-08-11T08:00:54;4.30;;;4.00;;
10465;SDS011;5280;42.600;23.556;2022-08-11T08:03:41;4.25;;;3.83;;
10465;SDS011;5280;42.600;23.556;2022-08-11T08:06:30;4.22;;;3.92;;
10465;SDS011;5280;42.600;23.556;2022-08-11T08:09:17;4.63;;;3.80;;
10465;SDS011;5280;42.600;23.556;2022-08-11T08:12:04;3.88;;;3.55;;
10465;SDS011;5280;42.600;23.556;2022-08-11T08:14:50;3.88;;;3.58;;
10465;SDS011;5280;42.600;23.556;2022-08-11T08:17:35;4.80;;;3.90;;
10465;SDS011;5280;42.600;23.556;2022-08-11T08:20:22;3.93;;;3.63;;
10465;SDS011;5280;42.600;23.556;2022-08-11T08:22:52;4.15;;;3.30;;
10465;SDS011;5280;42.600;23.556;2022-08-11T08:25:22;3.92;;;3.55;;
10465;SDS011;5280;42.600;23.556;2022-08-11T08:27:52;3.60;;;3.30;;
10465;SDS011;5280;42.600;23.556;2022-08-11T08:30:21;3.90;;;3.40;;
10465;SDS011;5280;42.600;23.556;2022-08-11T08:33:08;4.10;;;3.70;;
10465;SDS011;5280;42.600;23.556;2022-08-11T08:35:37;3.88;;;3.50;;
10465;SDS011;5280;42.600;23.556;2022-08-11T08:38:08;3.70;;;3.50;;
10465;SDS011;5280;42.600;23.556;2022-08-11T08:40:35;3.75;;;3.45;;
10465;SDS011;5280;42.600;23.556;2022-08-11T08:43:07;5.28;;;3.47;;
10465;SDS011;5280;42.600;23.556;2022-08-11T08:45:37;3.83;;;3.58;;
10465;SDS011;5280;42.600;23.556;2022-08-11T08:48:07;3.97;;;3.67;;
10465;SDS011;5280;42.600;23.556;2022-08-11T08:50:41;3.67;;;3.47;;
10465;SDS011;5280;42.600;23.556;2022-08-11T08:53:29;3.78;;;3.47;;
10465;SDS011;5280;42.600;23.556;2022-08-11T08:56:00;4.15;;;3.78;;
10465;SDS011;5280;42.600;23.556;2022-08-11T08:58:30;3.67;;;3.45;;
10465;SDS011;5280;42.600;23.556;2022-08-11T09:00:59;3.38;;;3.17;;
10465;SDS011;5280;42.600;23.556;2022-08-11T09:03:27;4.00;;;3.70;;
10465;SDS011;5280;42.600;23.556;2022-08-11T09:05:54;5.60;;;3.80;;
10465;SDS011;5280;42.600;23.556;2022-08-11T09:08:23;3.65;;;3.40;;
10465;SDS011;5280;42.600;23.556;2022-08-11T09:10:51;4.60;;;3.55;;
10465;SDS011;5280;42.600;23.556;2022-08-11T09:13:36;3.67;;;3.47;;
10465;SDS011;5280;42.600;23.556;2022-08-11T09:16:08;4.18;;;3.85;;
10465;SDS011;5280;42.600;23.556;2022-08-11T09:18:37;3.67;;;3.38;;
10465;SDS011;5280;42.600;23.556;2022-08-11T09:21:05;3.83;;;3.53;;
10465;SDS011;5280;42.600;23.556;2022-08-11T09:23:32;3.97;;;3.67;;
10465;SDS011;5280;42.600;23.556;2022-08-11T09:26:17;3.80;;;3.53;;
10465;SDS011;5280;42.600;23.556;2022-08-11T09:29:02;3.50;;;3.20;;
10465;SDS011;5280;42.600;23.556;2022-08-11T09:31:30;3.85;;;3.50;;
10465;SDS011;5280;42.600;23.556;2022-08-11T09:33:58;4.53;;;3.95;;
10465;SDS011;5280;42.600;23.556;2022-08-11T09:36:27;4.03;;;3.67;;
10465;SDS011;5280;42.600;23.556;2022-08-11T09:39:12;6.47;;;3.42;;
10465;SDS011;5280;42.600;23.556;2022-08-11T09:41:58;3.95;;;3.60;;
10465;SDS011;5280;42.600;23.556;2022-08-11T09:44:29;3.47;;;3.28;;
10465;SDS011;5280;42.600;23.556;2022-08-11T09:47:21;3.70;;;3.40;;
10465;SDS011;5280;42.600;23.556;2022-08-11T09:49:49;3.38;;;3.17;;
10465;SDS011;5280;42.600;23.556;2022-08-11T09:52:19;3.40;;;3.20;;
10465;SDS011;5280;42.600;23.556;2022-08-11T09:54:48;3.90;;;3.50;;
10465;SDS011;5280;42.600;23.556;2022-08-11T09:57:17;3.80;;;3.47;;
10465;SDS011;5280;42.600;23.556;2022-08-11T10:00:06;4.00;;;3.20;;
10465;SDS011;5280;42.600;23.556;2022-08-11T10:02:36;3.38;;;3.10;;
10465;SDS011;5280;42.600;23.556;2022-08-11T10:05:06;3.70;;;3.40;;
10465;SDS011;5280;42.600;23.556;2022-08-11T10:07:48;3.40;;;3.20;;
10465;SDS011;5280;42.600;23.556;2022-08-11T10:10:18;3.50;;;3.20;;
10465;SDS011;5280;42.600;23.556;2022-08-11T10:12:47;3.50;;;3.17;;
10465;SDS011;5280;42.600;23.556;2022-08-11T10:15:18;4.93;;;3.33;;
10465;SDS011;5280;42.600;23.556;2022-08-11T10:18:03;5.90;;;3.22;;
10465;SDS011;5280;42.600;23.556;2022-08-11T10:20:50;6.18;;;3.40;;
10465;SDS011;5280;42.600;23.556;2022-08-11T10:23:19;3.72;;;3.20;;
10465;SDS011;5280;42.600;23.556;2022-08-11T10:26:04;5.25;;;3.40;;
10465;SDS011;5280;42.600;23.556;2022-08-11T10:28:50;3.60;;;3.40;;
10465;SDS011;5280;42.600;23.556;2022-08-11T10:31:20;4.43;;;3.00;;
10465;SDS011;5280;42.600;23.556;2022-08-11T10:34:05;3.30;;;3.10;;
10465;SDS011;5280;42.600;23.556;2022-08-11T10:36:35;7.32;;;3.38;;
10465;SDS011;5280;42.600;23.556;2022-08-11T10:39:07;3.22;;;3.03;;
10465;SDS011;5280;42.600;23.556;2022-08-11T10:41:42;3.38;;;3.17;;
10465;SDS011;5280;42.600;23.556;2022-08-11T10:44:27;3.72;;;3.53;;
10465;SDS011;5280;42.600;23.556;2022-08-11T10:46:59;3.30;;;3.10;;
10465;SDS011;5280;42.600;23.556;2022-08-11T10:49:44;3.65;;;3.33;;
10465;SDS011;5280;42.600;23.556;2022-08-11T10:52:32;3.90;;;3.55;;
10465;SDS011;5280;42.600;23.556;2022-08-11T10:55:18;3.47;;;3.28;;
10465;SDS011;5280;42.600;23.556;2022-08-11T10:58:03;3.50;;;3.30;;
10465;SDS011;5280;42.600;23.556;2022-08-11T11:00:48;3.80;;;3.50;;
10465;SDS011;5280;42.600;23.556;2022-08-11T11:03:17;3.72;;;3.42;;
10465;SDS011;5280;42.600;23.556;2022-08-11T11:05:46;3.58;;;3.38;;
10465;SDS011;5280;42.600;23.556;2022-08-11T11:08:15;3.95;;;3.70;;
10465;SDS011;5280;42.600;23.556;2022-08-11T11:11:03;3.95;;;3.63;;
10465;SDS011;5280;42.600;23.556;2022-08-11T11:13:32;5.82;;;3.72;;
10465;SDS011;5280;42.600;23.556;2022-08-11T11:16:18;3.70;;;3.40;;
10465;SDS011;5280;42.600;23.556;2022-08-11T11:19:05;4.88;;;3.70;;
10465;SDS011;5280;42.600;23.556;2022-08-11T11:21:34;4.13;;;3.75;;
10465;SDS011;5280;42.600;23.556;2022-08-11T11:24:06;3.67;;;3.20;;
10465;SDS011;5280;42.600;23.556;2022-08-11T11:26:42;3.20;;;2.97;;
10465;SDS011;5280;42.600;23.556;2022-08-11T11:32:30;3.55;;;3.25;;
10465;SDS011;5280;42.600;23.556;2022-08-11T11:35:15;3.95;;;3.40;;
10465;SDS011;5280;42.600;23.556;2022-08-11T11:37:52;3.85;;;3.30;;
10465;SDS011;5280;42.600;23.556;2022-08-11T11:40:21;3.78;;;3.25;;
10465;SDS011;5280;42.600;23.556;2022-08-11T11:42:49;3.80;;;3.50;;
10465;SDS011;5280;42.600;23.556;2022-08-11T11:45:18;2.97;;;2.78;;
10465;SDS011;5280;42.600;23.556;2022-08-11T11:47:46;4.93;;;3.40;;
10465;SDS011;5280;42.600;23.556;2022-08-11T11:50:18;3.33;;;3.03;;
10465;SDS011;5280;42.600;23.556;2022-08-11T11:52:49;4.55;;;3.10;;
10465;SDS011;5280;42.600;23.556;2022-08-11T11:55:19;4.10;;;2.95;;
10465;SDS011;5280;42.600;23.556;2022-08-11T11:57:48;3.40;;;3.10;;
10465;SDS011;5280;42.600;23.556;2022-08-11T12:00:33;2.70;;;2.60;;
10465;SDS011;5280;42.600;23.556;2022-08-11T12:03:18;3.10;;;2.80;;
10465;SDS011;5280;42.600;23.556;2022-08-11T12:05:47;2.92;;;2.72;;
10465;SDS011;5280;42.600;23.556;2022-08-11T12:08:16;3.80;;;2.80;;
10465;SDS011;5280;42.600;23.556;2022-08-11T12:10:46;3.15;;;2.90;;
10465;SDS011;5280;42.600;23.556;2022-08-11T12:13:14;2.97;;;2.63;;
10465;SDS011;5280;42.600;23.556;2022-08-11T12:16:00;3.03;;;2.83;;
10465;SDS011;5280;42.600;23.556;2022-08-11T12:18:30;2.50;;;2.40;;
10465;SDS011;5280;42.600;23.556;2022-08-11T12:21:00;2.40;;;2.30;;
10465;SDS011;5280;42.600;23.556;2022-08-11T12:23:28;2.65;;;2.53;;
10465;SDS011;5280;42.600;23.556;2022-08-11T12:26:15;4.38;;;3.25;;
10465;SDS011;5280;42.600;23.556;2022-08-11T12:29:01;4.88;;;2.65;;
10465;SDS011;5280;42.600;23.556;2022-08-11T12:31:30;4.53;;;3.13;;
10465;SDS011;5280;42.600;23.556;2022-08-11T12:34:01;3.95;;;3.60;;
10465;SDS011;5280;42.600;23.556;2022-08-11T12:36:32;4.03;;;3.75;;
10465;SDS011;5280;42.600;23.556;2022-08-11T12:39:02;3.63;;;3.33;;
10465;SDS011;5280;42.600;23.556;2022-08-11T12:41:31;3.97;;;3.67;;
10465;SDS011;5280;42.600;23.556;2022-08-11T12:44:17;3.70;;;3.40;;
10465;SDS011;5280;42.600;23.556;2022-08-11T12:47:03;3.17;;;2.97;;
10465;SDS011;5280;42.600;23.556;2022-08-11T12:49:31;2.90;;;2.70;;
10465;SDS011;5280;42.600;23.556;2022-08-11T12:52:25;3.10;;;2.90;;
10465;SDS011;5280;42.600;23.556;2022-08-11T12:54:59;3.20;;;3.00;;
10465;SDS011;5280;42.600;23.556;2022-08-11T12:57:31;3.00;;;2.80;;
10465;SDS011;5280;42.600;23.556;2022-08-11T13:00:18;2.90;;;2.80;;
10465;SDS011;5280;42.600;23.556;2022-08-11T13:03:04;3.15;;;2.92;;
10465;SDS011;5280;42.600;23.556;2022-08-11T13:05:51;2.95;;;2.72;;
10465;SDS011;5280;42.600;23.556;2022-08-11T13:08:24;2.80;;;2.70;;
10465;SDS011;5280;42.600;23.556;2022-08-11T13:10:54;5.13;;;3.03;;
10465;SDS011;5280;42.600;23.556;2022-08-11T13:13:39;3.53;;;3.22;;
10465;SDS011;5280;42.600;23.556;2022-08-11T13:16:08;2.83;;;2.72;;
10465;SDS011;5280;42.600;23.556;2022-08-11T13:18:36;3.58;;;3.38;;
10465;SDS011;5280;42.600;23.556;2022-08-11T13:21:07;6.10;;;3.13;;
10465;SDS011;5280;42.600;23.556;2022-08-11T13:23:37;3.45;;;2.83;;
10465;SDS011;5280;42.600;23.556;2022-08-11T13:26:05;2.88;;;2.63;;
10465;SDS011;5280;42.600;23.556;2022-08-11T13:28:33;3.08;;;2.88;;
10465;SDS011;5280;42.600;23.556;2022-08-11T13:31:01;3.40;;;3.20;;
10465;SDS011;5280;42.600;23.556;2022-08-11T13:33:39;3.50;;;3.30;;
10465;SDS011;5280;42.600;23.556;2022-08-11T13:36:08;3.60;;;3.40;;
10465;SDS011;5280;42.600;23.556;2022-08-11T13:38:37;3.45;;;3.13;;
10465;SDS011;5280;42.600;23.556;2022-08-11T13:41:07;3.47;;;3.17;;
10465;SDS011;5280;42.600;23.556;2022-08-11T13:43:48;3.53;;;3.33;;
10465;SDS011;5280;42.600;23.556;2022-08-11T13:46:17;4.53;;;3.17;;
10465;SDS011;5280;42.600;23.556;2022-08-11T13:48:46;3.53;;;3.33;;
10465;SDS011;5280;42.600;23.556;2022-08-11T13:51:15;2.95;;;2.78;;
10465;SDS011;5280;42.600;23.556;2022-08-11T13:54:01;3.67;;;3.47;;
10465;SDS011;5280;42.600;23.556;2022-08-11T13:56:30;3.55;;;3.28;;
10465;SDS011;5280;42.600;23.556;2022-08-11T13:58:58;4.50;;;3.58;;
10465;SDS011;5280;42.600;23.556;2022-08-11T14:01:28;4.32;;;2.90;;
10465;SDS011;5280;42.600;23.556;2022-08-11T14:03:58;3.40;;;3.10;;
10465;SDS011;5280;42.600;23.556;2022-08-11T14:06:31;3.15;;;2.90;;
10465;SDS011;5280;42.600;23.556;2022-08-11T14:09:05;2.88;;;2.67;;
10465;SDS011;5280;42.600;23.556;2022-08-11T14:11:35;2.60;;;2.50;;
10465;SDS011;5280;42.600;23.556;2022-08-11T14:14:24;3.20;;;3.00;;
10465;SDS011;5280;42.600;23.556;2022-08-11T14:16:53;2.92;;;2.72;;
10465;SDS011;5280;42.600;23.556;2022-08-11T14:19:23;2.97;;;2.40;;
10465;SDS011;5280;42.600;23.556;2022-08-11T14:21:51;3.22;;;2.70;;
10465;SDS011;5280;42.600;23.556;2022-08-11T14:24:36;3.22;;;2.72;;
10465;SDS011;5280;42.600;23.556;2022-08-11T14:27:05;3.72;;;2.67;;
10465;SDS011;5280;42.600;23.556;2022-08-11T14:29:34;3.00;;;2.70;;
10465;SDS011;5280;42.600;23.556;2022-08-11T14:32:04;2.45;;;2.35;;
10465;SDS011;5280;42.600;23.556;2022-08-11T14:34:33;3.03;;;2.70;;
10465;SDS011;5280;42.600;23.556;2022-08-11T14:37:01;2.65;;;2.55;;
10465;SDS011;5280;42.600;23.556;2022-08-11T14:39:35;2.80;;;2.60;;
10465;SDS011;5280;42.600;23.556;2022-08-11T14:42:06;3.30;;;3.10;;
10465;SDS011;5280;42.600;23.556;2022-08-11T14:44:53;2.83;;;2.63;;
10465;SDS011;5280;42.600;23.556;2022-08-11T14:47:42;2.90;;;2.67;;
10465;SDS011;5280;42.600;23.556;2022-08-11T14:50:15;2.83;;;2.63;;
10465;SDS011;5280;42.600;23.556;2022-08-11T14:52:48;2.90;;;2.70;;
10465;SDS011;5280;42.600;23.556;2022-08-11T14:55:18;4.22;;;2.88;;
10465;SDS011;5280;42.600;23.556;2022-08-11T14:58:05;2.55;;;2.45;;
10465;SDS011;5280;42.600;23.556;2022-08-11T15:00:36;3.10;;;2.90;;
10465;SDS011;5280;42.600;23.556;2022-08-11T15:03:06;3.05;;;2.70;;
10465;SDS011;5280;42.600;23.556;2022-08-11T15:05:36;2.70;;;2.50;;
10465;SDS011;5280;42.600;23.556;2022-08-11T15:08:06;2.30;;;2.20;;
10465;SDS011;5280;42.600;23.556;2022-08-11T15:10:43;2.35;;;2.25;;
10465;SDS011;5280;42.600;23.556;2022-08-11T15:13:14;3.00;;;2.70;;
10465;SDS011;5280;42.600;23.556;2022-08-11T15:15:47;3.83;;;2.80;;
10465;SDS011;5280;42.600;23.556;2022-08-11T15:18:31;2.58;;;2.47;;
10465;SDS011;5280;42.600;23.556;2022-08-11T15:21:00;2.80;;;2.60;;
10465;SDS011;5280;42.600;23.556;2022-08-11T15:23:44;2.88;;;2.17;;
10465;SDS011;5280;42.600;23.556;2022-08-11T15:26:31;2.97;;;2.60;;
10465;SDS011;5280;42.600;23.556;2022-08-11T15:29:21;2.47;;;2.38;;
10465;SDS011;5280;42.600;23.556;2022-08-11T15:32:08;2.20;;;2.10;;
10465;SDS011;5280;42.600;23.556;2022-08-11T15:34:54;4.55;;;2.83;;
10465;SDS011;5280;42.600;23.556;2022-08-11T15:37:51;2.78;;;2.58;;
10465;SDS011;5280;42.600;23.556;2022-08-11T15:40:22;5.53;;;2.75;;
10465;SDS011;5280;42.600;23.556;2022-08-11T15:43:13;3.88;;;2.53;;
10465;SDS011;5280;42.600;23.556;2022-08-11T15:46:10;3.30;;;2.78;;
10465;SDS011;5280;42.600;23.556;2022-08-11T15:48:40;2.42;;;2.33;;
10465;SDS011;5280;42.600;23.556;2022-08-11T15:51:13;4.18;;;2.70;;
10465;SDS011;5280;42.600;23.556;2022-08-11T15:53:48;2.38;;;2.22;;
10465;SDS011;5280;42.600;23.556;2022-08-11T15:56:17;2.75;;;2.55;;
10465;SDS011;5280;42.600;23.556;2022-08-11T15:58:47;2.53;;;2.33;;
10465;SDS011;5280;42.600;23.556;2022-08-11T16:01:34;3.65;;;2.50;;
10465;SDS011;5280;42.600;23.556;2022-08-11T16:04:22;2.83;;;2.55;;
10465;SDS011;5280;42.600;23.556;2022-08-11T16:06:52;4.63;;;2.43;;
10465;SDS011;5280;42.600;23.556;2022-08-11T16:09:25;2.67;;;2.47;;
10465;SDS011;5280;42.600;23.556;2022-08-11T16:11:58;2.60;;;2.40;;
10465;SDS011;5280;42.600;23.556;2022-08-11T16:14:29;4.03;;;2.30;;
10465;SDS011;5280;42.600;23.556;2022-08-11T16:17:16;2.70;;;2.50;;
10465;SDS011;5280;42.600;23.556;2022-08-11T16:19:47;2.67;;;2.47;;
10465;SDS011;5280;42.600;23.556;2022-08-11T16:22:19;4.10;;;2.55;;
10465;SDS011;5280;42.600;23.556;2022-08-11T16:24:57;2.88;;;2.53;;
10465;SDS011;5280;42.600;23.556;2022-08-11T16:27:26;3.80;;;2.45;;
10465;SDS011;5280;42.600;23.556;2022-08-11T16:29:59;3.33;;;3.03;;
10465;SDS011;5280;42.600;23.556;2022-08-11T16:32:29;2.43;;;2.30;;
10465;SDS011;5280;42.600;23.556;2022-08-11T16:34:59;2.80;;;2.60;;
10465;SDS011;5280;42.600;23.556;2022-08-11T16:37:51;4.80;;;2.57;;
10465;SDS011;5280;42.600;23.556;2022-08-11T16:40:38;2.73;;;2.53;;
10465;SDS011;5280;42.600;23.556;2022-08-11T16:43:11;2.67;;;2.40;;
10465;SDS011;5280;42.600;23.556;2022-08-11T16:45:59;2.67;;;2.30;;
10465;SDS011;5280;42.600;23.556;2022-08-11T16:48:47;2.40;;;2.30;;
10465;SDS011;5280;42.600;23.556;2022-08-11T16:51:15;3.40;;;2.37;;
10465;SDS011;5280;42.600;23.556;2022-08-11T16:53:45;2.80;;;2.60;;
10465;SDS011;5280;42.600;23.556;2022-08-11T16:56:15;4.13;;;2.67;;
10465;SDS011;5280;42.600;23.556;2022-08-11T16:58:45;3.60;;;2.60;;
10465;SDS011;5280;42.600;23.556;2022-08-11T17:01:38;2.90;;;2.60;;
10465;SDS011;5280;42.600;23.556;2022-08-11T17:04:07;3.23;;;2.70;;
10465;SDS011;5280;42.600;23.556;2022-08-11T17:06:58;4.83;;;2.63;;
10465;SDS011;5280;42.600;23.556;2022-08-11T17:09:54;5.63;;;2.73;;
10465;SDS011;5280;42.600;23.556;2022-08-11T17:12:47;6.37;;;2.63;;
10465;SDS011;5280;42.600;23.556;2022-08-11T17:15:35;3.57;;;2.70;;
10465;SDS011;5280;42.600;23.556;2022-08-11T17:18:25;3.10;;;2.87;;
10465;SDS011;5280;42.600;23.556;2022-08-11T17:21:08;7.40;;;2.90;;
10465;SDS011;5280;42.600;23.556;2022-08-11T17:23:40;4.07;;;2.70;;
10465;SDS011;5280;42.600;23.556;2022-08-11T17:26:17;6.00;;;3.00;;
10465;SDS011;5280;42.600;23.556;2022-08-11T17:28:49;4.33;;;2.80;;
10465;SDS011;5280;42.600;23.556;2022-08-11T17:31:20;4.60;;;2.80;;
10465;SDS011;5280;42.600;23.556;2022-08-11T17:34:09;4.83;;;2.87;;
10465;SDS011;5280;42.600;23.556;2022-08-11T17:36:55;4.13;;;2.80;;
10465;SDS011;5280;42.600;23.556;2022-08-11T17:39:26;2.80;;;2.70;;
10465;SDS011;5280;42.600;23.556;2022-08-11T17:41:55;4.17;;;2.70;;
10465;SDS011;5280;42.600;23.556;2022-08-11T17:44:43;5.67;;;2.93;;
10465;SDS011;5280;42.600;23.556;2022-08-11T17:47:28;3.03;;;2.53;;
10465;SDS011;5280;42.600;23.556;2022-08-11T17:50:15;3.70;;;2.63;;
10465;SDS011;5280;42.600;23.556;2022-08-11T17:52:44;3.53;;;2.70;;
10465;SDS011;5280;42.600;23.556;2022-08-11T17:55:45;3.30;;;2.90;;
10465;SDS011;5280;42.600;23.556;2022-08-11T17:58:58;4.27;;;2.40;;
10465;SDS011;5280;42.600;23.556;2022-08-11T18:01:44;7.03;;;2.50;;